createdAt,value
2018-07-02T00:00:38.926Z,0.00
2018-07-02T00:01:38.902Z,0.00
2018-07-02T00:02:38.896Z,0.00
2018-07-02T00:03:38.884Z,0.00
2018-07-02T00:04:38.865Z,0.00
2018-07-02T00:05:38.869Z,0.00
2018-07-02T00:06:38.838Z,0.00
2018-07-02T00:07:38.821Z,0.00
2018-07-02T00:08:38.807Z,0.00
2018-07-02T00:09:38.793Z,0.00
2018-07-02T00:10:38.780Z,0.00
2018-07-02T00:11:38.786Z,0.00
2018-07-02T00:12:38.756Z,0.00
2018-07-02T00:13:38.739Z,0.00
2018-07-02T00:14:38.725Z,0.00
2018-07-02T00:15:38.715Z,0.00
2018-07-02T00:16:38.704Z,0.00
2018-07-02T00:17:38.700Z,0.00
2018-07-02T00:18:38.677Z,0.00
2018-07-02T00:19:38.659Z,0.00
2018-07-02T00:20:38.646Z,0.00
2018-07-02T00:21:38.631Z,0.00
2018-07-02T00:22:38.636Z,0.00
2018-07-02T00:23:38.608Z,0.00
2018-07-02T00:24:38.594Z,0.00
2018-07-02T00:25:38.581Z,0.00
2018-07-02T00:26:38.569Z,0.00
2018-07-02T00:27:38.551Z,0.00
2018-07-02T00:28:38.549Z,0.00
2018-07-02T00:29:38.529Z,0.00
2018-07-02T00:30:38.515Z,0.00
2018-07-02T00:31:38.506Z,0.00
2018-07-02T00:32:38.486Z,0.00
2018-07-02T00:33:38.483Z,0.00
2018-07-02T00:34:38.461Z,0.00
2018-07-02T00:35:38.451Z,0.00
2018-07-02T00:36:38.437Z,0.00
2018-07-02T00:37:38.427Z,0.00
2018-07-02T00:38:38.412Z,0.00
2018-07-02T00:39:38.411Z,0.00
2018-07-02T00:40:38.383Z,0.00
2018-07-02T00:41:38.370Z,0.00
2018-07-02T00:42:38.397Z,0.00
2018-07-02T00:43:38.349Z,0.00
2018-07-02T00:44:38.351Z,0.00
2018-07-02T00:45:38.319Z,0.00
2018-07-02T00:46:38.306Z,0.00
2018-07-02T00:47:38.296Z,0.00
2018-07-02T00:48:38.283Z,0.00
2018-07-02T00:49:38.271Z,0.00
2018-07-02T00:50:38.268Z,0.00
2018-07-02T00:51:38.241Z,0.00
2018-07-02T00:52:38.230Z,0.00
2018-07-02T00:53:38.218Z,0.00
2018-07-02T00:54:38.208Z,0.00
2018-07-02T00:55:38.215Z,0.00
2018-07-02T00:56:38.186Z,0.00
2018-07-02T00:57:38.174Z,0.00
2018-07-02T00:58:38.163Z,0.00
2018-07-02T00:59:38.149Z,0.00
2018-07-02T01:00:38.138Z,0.00
2018-07-02T01:01:38.140Z,0.00
2018-07-02T01:02:38.118Z,0.00
2018-07-02T01:03:38.104Z,0.00
2018-07-02T01:04:38.094Z,0.00
2018-07-02T01:05:38.082Z,0.00
2018-07-02T01:06:38.084Z,0.00
2018-07-02T01:07:38.065Z,0.00
2018-07-02T01:08:38.054Z,0.00
2018-07-02T01:09:38.044Z,0.00
2018-07-02T01:10:38.034Z,0.00
2018-07-02T01:11:38.039Z,0.00
2018-07-02T01:12:38.011Z,0.00
2018-07-02T01:13:38.004Z,0.00
2018-07-02T01:14:37.992Z,0.00
2018-07-02T01:15:37.986Z,0.00
2018-07-02T01:16:37.977Z,0.00
2018-07-02T01:17:37.974Z,0.00
2018-07-02T01:18:37.954Z,0.00
2018-07-02T01:19:37.948Z,0.00
2018-07-02T01:20:37.940Z,0.00
2018-07-02T01:21:37.931Z,0.00
2018-07-02T01:22:37.939Z,0.00
2018-07-02T01:23:37.912Z,0.00
2018-07-02T01:24:37.903Z,0.00
2018-07-02T01:25:37.894Z,0.00
2018-07-02T01:26:37.885Z,0.00
2018-07-02T01:27:37.879Z,0.00
2018-07-02T01:28:37.881Z,0.00
2018-07-02T01:29:37.864Z,0.00
2018-07-02T01:30:37.855Z,0.00
2018-07-02T01:31:37.843Z,0.00
2018-07-02T01:32:37.834Z,0.00
2018-07-02T01:33:37.848Z,0.00
2018-07-02T01:34:37.823Z,0.00
2018-07-02T01:35:37.810Z,0.00
2018-07-02T01:36:37.808Z,0.00
2018-07-02T01:37:37.795Z,0.00
2018-07-02T01:38:37.787Z,0.00
2018-07-02T01:39:37.793Z,0.00
2018-07-02T01:40:37.774Z,0.00
2018-07-02T01:41:37.767Z,0.00
2018-07-02T01:42:37.768Z,0.00
2018-07-02T01:43:37.748Z,0.00
2018-07-02T01:44:37.756Z,0.00
2018-07-02T01:45:37.732Z,0.00
2018-07-02T01:46:37.723Z,0.00
2018-07-02T01:47:37.719Z,0.00
2018-07-02T01:48:37.710Z,0.00
2018-07-02T01:49:37.700Z,0.00
2018-07-02T01:50:37.701Z,0.00
2018-07-02T01:51:37.686Z,0.00
2018-07-02T01:52:37.681Z,0.00
2018-07-02T01:53:37.673Z,0.00
2018-07-02T01:54:37.663Z,0.00
2018-07-02T01:55:37.669Z,0.00
2018-07-02T01:56:37.644Z,0.00
2018-07-02T01:57:37.636Z,0.00
2018-07-02T01:58:37.627Z,0.00
2018-07-02T01:59:37.623Z,0.00
2018-07-02T02:00:37.616Z,0.00
2018-07-02T02:01:37.617Z,0.00
2018-07-02T02:02:37.600Z,0.00
2018-07-02T02:03:37.589Z,0.00
2018-07-02T02:04:37.580Z,0.00
2018-07-02T02:05:37.577Z,0.00
2018-07-02T02:06:37.586Z,0.00
2018-07-02T02:07:37.557Z,0.00
2018-07-02T02:08:37.549Z,0.00
2018-07-02T02:09:37.541Z,0.00
2018-07-02T02:10:37.538Z,0.00
2018-07-02T02:11:37.540Z,0.00
2018-07-02T02:12:37.531Z,0.00
2018-07-02T02:13:37.512Z,0.00
2018-07-02T02:14:37.505Z,0.00
2018-07-02T02:15:37.494Z,0.00
2018-07-02T02:16:37.487Z,0.00
2018-07-02T02:17:37.495Z,0.00
2018-07-02T02:18:37.470Z,0.00
2018-07-02T02:19:37.465Z,0.00
2018-07-02T02:20:37.458Z,0.00
2018-07-02T02:21:37.447Z,0.00
2018-07-02T02:22:37.438Z,0.00
2018-07-02T02:23:37.443Z,0.00
2018-07-02T02:24:37.428Z,0.00
2018-07-02T02:25:37.419Z,0.00
2018-07-02T02:26:37.412Z,0.00
2018-07-02T02:27:37.399Z,0.00
2018-07-02T02:28:37.413Z,0.00
2018-07-02T02:29:37.384Z,0.00
2018-07-02T02:30:37.374Z,0.00
2018-07-02T02:31:37.373Z,0.00
2018-07-02T02:32:37.362Z,0.00
2018-07-02T02:33:37.353Z,0.00
2018-07-02T02:34:37.356Z,0.00
2018-07-02T02:35:37.335Z,4.00
2018-07-02T02:36:37.332Z,4.00
2018-07-02T02:37:37.336Z,0.00
2018-07-02T02:38:37.331Z,0.00
2018-07-02T02:39:37.322Z,4.00
2018-07-02T02:40:37.301Z,4.00
2018-07-02T02:41:37.293Z,4.00
2018-07-02T02:42:37.279Z,4.00
2018-07-02T02:43:37.275Z,4.00
2018-07-02T02:44:37.266Z,8.00
2018-07-02T02:45:37.270Z,8.00
2018-07-02T02:46:37.250Z,8.00
2018-07-02T02:47:37.239Z,8.00
2018-07-02T02:48:37.231Z,8.00
2018-07-02T02:49:37.224Z,12.00
2018-07-02T02:50:37.230Z,16.00
2018-07-02T02:51:37.210Z,16.00
2018-07-02T02:52:37.204Z,16.00
2018-07-02T02:53:37.192Z,20.00
2018-07-02T02:54:37.183Z,24.00
2018-07-02T02:55:37.181Z,28.00
2018-07-02T02:56:37.184Z,32.00
2018-07-02T02:57:37.169Z,36.00
2018-07-02T02:58:37.157Z,44.00
2018-07-02T02:59:37.146Z,48.00
2018-07-02T03:00:37.137Z,52.00
2018-07-02T03:01:37.146Z,64.00
2018-07-02T03:02:37.121Z,68.00
2018-07-02T03:03:37.124Z,80.00
2018-07-02T03:04:37.112Z,84.00
2018-07-02T03:05:37.102Z,100.00
2018-07-02T03:06:37.105Z,112.00
2018-07-02T03:07:37.092Z,120.00
2018-07-02T03:08:37.074Z,136.00
2018-07-02T03:09:37.093Z,152.00
2018-07-02T03:10:37.062Z,168.00
2018-07-02T03:11:37.051Z,184.00
2018-07-02T03:12:37.053Z,204.00
2018-07-02T03:13:37.033Z,224.00
2018-07-02T03:14:37.025Z,244.00
2018-07-02T03:15:37.020Z,264.00
2018-07-02T03:16:37.012Z,288.00
2018-07-02T03:17:37.021Z,312.00
2018-07-02T03:18:36.995Z,344.00
2018-07-02T03:19:36.982Z,368.00
2018-07-02T03:20:36.972Z,396.00
2018-07-02T03:21:36.963Z,428.00
2018-07-02T03:22:36.952Z,456.00
2018-07-02T03:23:36.962Z,492.00
2018-07-02T03:24:36.938Z,520.00
2018-07-02T03:25:36.924Z,556.00
2018-07-02T03:26:36.916Z,592.00
2018-07-02T03:27:36.907Z,624.00
2018-07-02T03:28:36.900Z,660.00
2018-07-02T03:29:36.897Z,696.00
2018-07-02T03:30:36.877Z,732.00
2018-07-02T03:31:36.866Z,772.00
2018-07-02T03:32:36.854Z,812.00
2018-07-02T03:33:36.843Z,852.00
2018-07-02T03:34:36.852Z,884.00
2018-07-02T03:35:36.827Z,924.00
2018-07-02T03:36:36.816Z,964.00
2018-07-02T03:37:36.807Z,1000.00
2018-07-02T03:38:36.796Z,1044.00
2018-07-02T03:39:36.783Z,1080.00
2018-07-02T03:40:36.783Z,1116.00
2018-07-02T03:41:36.766Z,1156.00
2018-07-02T03:42:36.758Z,1196.00
2018-07-02T03:43:36.745Z,1236.00
2018-07-02T03:44:36.732Z,1272.00
2018-07-02T03:45:36.739Z,1312.00
2018-07-02T03:46:36.712Z,1352.00
2018-07-02T03:47:36.705Z,1388.00
2018-07-02T03:48:36.695Z,1424.00
2018-07-02T03:49:36.684Z,1464.00
2018-07-02T03:50:36.675Z,1496.00
2018-07-02T03:51:36.670Z,1536.00
2018-07-02T03:52:36.654Z,1568.00
2018-07-02T03:53:36.641Z,1604.00
2018-07-02T03:54:36.630Z,1644.00
2018-07-02T03:55:36.624Z,1680.00
2018-07-02T03:56:36.629Z,1712.00
2018-07-02T03:57:36.600Z,1744.00
2018-07-02T03:58:36.590Z,1776.00
2018-07-02T03:59:36.583Z,1812.00
2018-07-02T04:00:36.573Z,1844.00
2018-07-02T04:01:36.567Z,1872.00
2018-07-02T04:02:36.563Z,1908.00
2018-07-02T04:03:36.541Z,1940.00
2018-07-02T04:04:36.529Z,1968.00
2018-07-02T04:05:36.521Z,2000.00
2018-07-02T04:06:36.511Z,2032.00
2018-07-02T04:07:36.524Z,2064.00
2018-07-02T04:08:36.498Z,2088.00
2018-07-02T04:09:36.489Z,2120.00
2018-07-02T04:10:36.481Z,2144.00
2018-07-02T04:11:36.467Z,2176.00
2018-07-02T04:12:36.458Z,2204.00
2018-07-02T04:13:36.463Z,2232.00
2018-07-02T04:14:36.445Z,2260.00
2018-07-02T04:15:36.431Z,2284.00
2018-07-02T04:16:36.428Z,2308.00
2018-07-02T04:17:36.414Z,2336.00
2018-07-02T04:18:36.422Z,2364.00
2018-07-02T04:19:36.400Z,2388.00
2018-07-02T04:20:36.392Z,2412.00
2018-07-02T04:21:36.383Z,2436.00
2018-07-02T04:22:36.375Z,2460.00
2018-07-02T04:23:36.362Z,2484.00
2018-07-02T04:24:36.367Z,2504.00
2018-07-02T04:25:36.346Z,2532.00
2018-07-02T04:26:36.338Z,2552.00
2018-07-02T04:27:36.333Z,2576.00
2018-07-02T04:28:36.326Z,2596.00
2018-07-02T04:29:36.323Z,2620.00
2018-07-02T04:30:36.304Z,2644.00
2018-07-02T04:31:36.298Z,2664.00
2018-07-02T04:32:36.294Z,2684.00
2018-07-02T04:33:36.281Z,2692.00
2018-07-02T04:34:36.293Z,2712.00
2018-07-02T04:35:36.261Z,2728.00
2018-07-02T04:36:36.252Z,2752.00
2018-07-02T04:37:36.245Z,2764.00
2018-07-02T04:38:36.235Z,2792.00
2018-07-02T04:39:36.232Z,2808.00
2018-07-02T04:40:36.241Z,2844.00
2018-07-02T04:41:36.214Z,2860.00
2018-07-02T04:42:36.207Z,2876.00
2018-07-02T04:43:36.195Z,2896.00
2018-07-02T04:44:36.209Z,2916.00
2018-07-02T04:45:36.187Z,2936.00
2018-07-02T04:46:36.191Z,2956.00
2018-07-02T04:47:36.166Z,2972.00
2018-07-02T04:48:36.159Z,2992.00
2018-07-02T04:49:36.150Z,3004.00
2018-07-02T04:50:36.147Z,3024.00
2018-07-02T04:51:36.145Z,3040.00
2018-07-02T04:52:36.128Z,3056.00
2018-07-02T04:53:36.118Z,3072.00
2018-07-02T04:54:36.119Z,3088.00
2018-07-02T04:55:36.101Z,3104.00
2018-07-02T04:56:36.109Z,3124.00
2018-07-02T04:57:36.082Z,3140.00
2018-07-02T04:58:36.072Z,3152.00
2018-07-02T04:59:36.068Z,3172.00
2018-07-02T05:00:36.055Z,3188.00
2018-07-02T05:01:36.047Z,3204.00
2018-07-02T05:02:36.050Z,3220.00
2018-07-02T05:03:36.026Z,3244.00
2018-07-02T05:04:36.018Z,3256.00
2018-07-02T05:05:36.004Z,3272.00
2018-07-02T05:06:35.995Z,3288.00
2018-07-02T05:07:35.985Z,3308.00
2018-07-02T05:08:35.980Z,3324.00
2018-07-02T05:09:35.964Z,3340.00
2018-07-02T05:10:35.948Z,3360.00
2018-07-02T05:11:35.940Z,3380.00
2018-07-02T05:12:35.929Z,3400.00
2018-07-02T05:13:35.935Z,3420.00
2018-07-02T05:14:35.907Z,3440.00
2018-07-02T05:15:35.892Z,3464.00
2018-07-02T05:16:35.879Z,3476.00
2018-07-02T05:17:35.871Z,3500.00
2018-07-02T05:18:35.863Z,3520.00
2018-07-02T05:19:35.855Z,3540.00
2018-07-02T05:20:35.832Z,3560.00
2018-07-02T05:21:35.818Z,3576.00
2018-07-02T05:22:35.807Z,3596.00
2018-07-02T05:23:35.796Z,3616.00
2018-07-02T05:24:35.797Z,3632.00
2018-07-02T05:25:35.768Z,3648.00
2018-07-02T05:26:35.806Z,3668.00
2018-07-02T05:27:35.878Z,3688.00
2018-07-02T05:28:35.723Z,3704.00
2018-07-02T05:29:35.710Z,3716.00
2018-07-02T05:30:35.707Z,3736.00
2018-07-02T05:31:35.687Z,3752.00
2018-07-02T05:32:35.799Z,3768.00
2018-07-02T05:33:35.658Z,3784.00
2018-07-02T05:34:35.645Z,3796.00
2018-07-02T05:35:35.651Z,3812.00
2018-07-02T05:36:35.622Z,3828.00
2018-07-02T05:37:35.612Z,3844.00
2018-07-02T05:38:35.597Z,3856.00
2018-07-02T05:39:35.608Z,3868.00
2018-07-02T05:40:35.570Z,3888.00
2018-07-02T05:41:35.568Z,3900.00
2018-07-02T05:42:35.546Z,3916.00
2018-07-02T05:43:35.536Z,3932.00
2018-07-02T05:44:35.524Z,3948.00
2018-07-02T05:45:35.514Z,3960.00
2018-07-02T05:46:35.517Z,3980.00
2018-07-02T05:47:35.486Z,3988.00
2018-07-02T05:48:35.495Z,4008.00
2018-07-02T05:49:35.468Z,4020.00
2018-07-02T05:50:35.455Z,4036.00
2018-07-02T05:51:35.460Z,4052.00
2018-07-02T05:52:35.430Z,4072.00
2018-07-02T05:53:35.417Z,4084.00
2018-07-02T05:54:35.409Z,4104.00
2018-07-02T05:55:35.400Z,4124.00
2018-07-02T05:56:35.388Z,4148.00
2018-07-02T05:57:35.478Z,4168.00
2018-07-02T05:58:35.366Z,4192.00
2018-07-02T05:59:35.352Z,4208.00
2018-07-02T06:00:35.385Z,4232.00
2018-07-02T06:01:35.331Z,4264.00
2018-07-02T06:02:35.337Z,4292.00
2018-07-02T06:03:35.313Z,4320.00
2018-07-02T06:04:35.300Z,4348.00
2018-07-02T06:05:35.287Z,4380.00
2018-07-02T06:06:35.276Z,4416.00
2018-07-02T06:07:35.268Z,4460.00
2018-07-02T06:08:35.268Z,4496.00
2018-07-02T06:09:35.247Z,4552.00
2018-07-02T06:10:35.235Z,4672.00
2018-07-02T06:11:35.222Z,4912.00
2018-07-02T06:12:35.211Z,5124.00
2018-07-02T06:13:35.219Z,5248.00
2018-07-02T06:14:35.189Z,5404.00
2018-07-02T06:15:35.183Z,8900.00
2018-07-02T06:16:35.186Z,27648.00
2018-07-02T06:17:35.159Z,45312.00
2018-07-02T06:18:35.149Z,48064.00
2018-07-02T06:19:35.144Z,48832.00
2018-07-02T06:20:35.126Z,48928.00
2018-07-02T06:21:35.116Z,47392.00
2018-07-02T06:22:35.105Z,46880.00
2018-07-02T06:23:35.091Z,48384.00
2018-07-02T06:24:35.098Z,49088.00
2018-07-02T06:25:35.070Z,49920.00
2018-07-02T06:26:35.059Z,51744.00
2018-07-02T06:27:35.052Z,52160.00
2018-07-02T06:28:35.040Z,51296.00
2018-07-02T06:29:35.037Z,52032.00
2018-07-02T06:30:35.120Z,51840.00
2018-07-02T06:31:35.004Z,52160.00
2018-07-02T06:32:34.995Z,53056.00
2018-07-02T06:33:34.983Z,53536.00
2018-07-02T06:34:34.974Z,54080.00
2018-07-02T06:35:34.982Z,55360.00
2018-07-02T06:36:34.954Z,56608.00
2018-07-02T06:37:34.940Z,57184.00
2018-07-02T06:38:34.931Z,56576.00
2018-07-02T06:39:34.923Z,55744.00
2018-07-02T06:40:34.911Z,55488.00
2018-07-02T06:41:34.912Z,57152.00
2018-07-02T06:42:34.891Z,59744.00
2018-07-02T06:43:34.875Z,61344.00
2018-07-02T06:44:34.865Z,60992.00
2018-07-02T06:45:34.872Z,60224.00
2018-07-02T06:46:34.844Z,61088.00
2018-07-02T06:47:34.837Z,61472.00
2018-07-02T06:48:34.876Z,61184.00
2018-07-02T06:49:34.815Z,59520.00
2018-07-02T06:50:34.803Z,59040.00
2018-07-02T06:51:34.805Z,59552.00
2018-07-02T06:52:34.779Z,60896.00
2018-07-02T06:53:34.772Z,61440.00
2018-07-02T06:54:34.761Z,61568.00
2018-07-02T06:55:34.747Z,61504.00
2018-07-02T06:56:34.737Z,62752.00
2018-07-02T06:57:34.762Z,63168.00
2018-07-02T06:58:34.745Z,62560.00
2018-07-02T06:59:34.709Z,62368.00
2018-07-02T07:00:34.697Z,63680.00
2018-07-02T07:01:34.688Z,64800.00
2018-07-02T07:02:34.676Z,66400.00
2018-07-02T07:03:34.676Z,67552.00
2018-07-02T07:04:34.652Z,68480.00
2018-07-02T07:05:34.645Z,69952.00
2018-07-02T07:06:34.633Z,69216.00
2018-07-02T07:07:34.626Z,67904.00
2018-07-02T07:08:34.684Z,67488.00
2018-07-02T07:09:34.602Z,67552.00
2018-07-02T07:10:34.590Z,68032.00
2018-07-02T07:11:34.583Z,69280.00
2018-07-02T07:12:34.572Z,71328.00
2018-07-02T07:13:34.562Z,72576.00
2018-07-02T07:14:34.564Z,72128.00
2018-07-02T07:15:34.604Z,71744.00
2018-07-02T07:16:34.528Z,71648.00
2018-07-02T07:17:34.520Z,71072.00
2018-07-02T07:18:34.507Z,70528.00
2018-07-02T07:19:34.518Z,70944.00
2018-07-02T07:20:34.492Z,71712.00
2018-07-02T07:21:34.481Z,71488.00
2018-07-02T07:22:34.471Z,71104.00
2018-07-02T07:23:34.457Z,70624.00
2018-07-02T07:24:34.448Z,69152.00
2018-07-02T07:25:34.451Z,68384.00
2018-07-02T07:26:34.431Z,69024.00
2018-07-02T07:27:34.459Z,70528.00
2018-07-02T07:28:34.411Z,72512.00
2018-07-02T07:29:34.396Z,74592.00
2018-07-02T07:30:34.403Z,75104.00
2018-07-02T07:31:34.380Z,73056.00
2018-07-02T07:32:34.373Z,72288.00
2018-07-02T07:33:34.359Z,73952.00
2018-07-02T07:34:34.348Z,75520.00
2018-07-02T07:35:34.337Z,76288.00
2018-07-02T07:36:34.337Z,76960.00
2018-07-02T07:37:34.322Z,76000.00
2018-07-02T07:38:34.306Z,76416.00
2018-07-02T07:39:34.299Z,78304.00
2018-07-02T07:40:34.290Z,80224.00
2018-07-02T07:41:34.295Z,81504.00
2018-07-02T07:42:34.272Z,81568.00
2018-07-02T07:43:34.261Z,82176.00
2018-07-02T07:44:34.251Z,82048.00
2018-07-02T07:45:34.242Z,82080.00
2018-07-02T07:46:34.231Z,81408.00
2018-07-02T07:47:34.230Z,80576.00
2018-07-02T07:48:34.213Z,79712.00
2018-07-02T07:49:34.198Z,80768.00
2018-07-02T07:50:34.189Z,81056.00
2018-07-02T07:51:34.182Z,82464.00
2018-07-02T07:52:34.182Z,84192.00
2018-07-02T07:53:34.164Z,84352.00
2018-07-02T07:54:34.152Z,82976.00
2018-07-02T07:55:34.142Z,80224.00
2018-07-02T07:56:34.131Z,79040.00
2018-07-02T07:57:34.143Z,79008.00
2018-07-02T07:58:34.114Z,79584.00
2018-07-02T07:59:34.157Z,78784.00
2018-07-02T08:00:34.092Z,78784.00
2018-07-02T08:01:34.082Z,80256.00
2018-07-02T08:02:34.075Z,81216.00
2018-07-02T08:03:34.136Z,81088.00
2018-07-02T08:04:34.058Z,82464.00
2018-07-02T08:05:34.049Z,84768.00
2018-07-02T08:06:34.040Z,84000.00
2018-07-02T08:07:34.026Z,82464.00
2018-07-02T08:08:34.018Z,82400.00
2018-07-02T08:09:34.018Z,82816.00
2018-07-02T08:10:34.062Z,82848.00
2018-07-02T08:11:33.997Z,84832.00
2018-07-02T08:12:33.987Z,86976.00
2018-07-02T08:13:33.971Z,87040.00
2018-07-02T08:14:33.979Z,87360.00
2018-07-02T08:15:33.957Z,87104.00
2018-07-02T08:16:33.949Z,87168.00
2018-07-02T08:17:33.938Z,86336.00
2018-07-02T08:18:33.934Z,85984.00
2018-07-02T08:19:33.917Z,87584.00
2018-07-02T08:20:33.919Z,89408.00
2018-07-02T08:21:33.900Z,89312.00
2018-07-02T08:22:33.890Z,90432.00
2018-07-02T08:23:33.888Z,89920.00
2018-07-02T08:24:33.875Z,88928.00
2018-07-02T08:25:33.893Z,90592.00
2018-07-02T08:26:33.859Z,91680.00
2018-07-02T08:27:33.844Z,92832.00
2018-07-02T08:28:33.838Z,93568.00
2018-07-02T08:29:33.831Z,93440.00
2018-07-02T08:30:33.824Z,94688.00
2018-07-02T08:31:33.822Z,94528.00
2018-07-02T08:32:33.801Z,94016.00
2018-07-02T08:33:33.793Z,94592.00
2018-07-02T08:34:33.786Z,96192.00
2018-07-02T08:35:33.777Z,95104.00
2018-07-02T08:36:33.784Z,95744.00
2018-07-02T08:37:33.765Z,95680.00
2018-07-02T08:38:33.753Z,94560.00
2018-07-02T08:39:33.743Z,96064.00
2018-07-02T08:40:33.732Z,96672.00
2018-07-02T08:41:33.744Z,95584.00
2018-07-02T08:42:33.725Z,94272.00
2018-07-02T08:43:33.712Z,94688.00
2018-07-02T08:44:33.702Z,93888.00
2018-07-02T08:45:33.697Z,93888.00
2018-07-02T08:46:33.700Z,95232.00
2018-07-02T08:47:33.700Z,97120.00
2018-07-02T08:48:33.669Z,96864.00
2018-07-02T08:49:33.662Z,96992.00
2018-07-02T08:50:33.656Z,96576.00
2018-07-02T08:51:33.648Z,96096.00
2018-07-02T08:52:33.641Z,95392.00
2018-07-02T08:53:33.642Z,97888.00
2018-07-02T08:54:33.623Z,96416.00
2018-07-02T08:55:33.613Z,94880.00
2018-07-02T08:56:33.604Z,95392.00
2018-07-02T08:57:33.595Z,94944.00
2018-07-02T08:58:33.606Z,95872.00
2018-07-02T08:59:33.577Z,95584.00
2018-07-02T09:00:33.566Z,95776.00
2018-07-02T09:01:33.559Z,95680.00
2018-07-02T09:02:33.550Z,94112.00
2018-07-02T09:03:33.538Z,94784.00
2018-07-02T09:04:33.546Z,94624.00
2018-07-02T09:05:33.521Z,95616.00
2018-07-02T09:06:33.510Z,96672.00
2018-07-02T09:07:33.505Z,96704.00
2018-07-02T09:08:33.495Z,96448.00
2018-07-02T09:09:33.499Z,96832.00
2018-07-02T09:10:33.481Z,97344.00
2018-07-02T09:11:33.467Z,97344.00
2018-07-02T09:12:33.469Z,98272.00
2018-07-02T09:13:33.447Z,98144.00
2018-07-02T09:14:33.456Z,97216.00
2018-07-02T09:15:33.434Z,96576.00
2018-07-02T09:16:33.425Z,96832.00
2018-07-02T09:17:33.413Z,97600.00
2018-07-02T09:18:33.410Z,97856.00
2018-07-02T09:19:33.401Z,99680.00
2018-07-02T09:20:33.409Z,99872.00
2018-07-02T09:21:33.384Z,99968.00
2018-07-02T09:22:33.376Z,101280.00
2018-07-02T09:23:33.364Z,99808.00
2018-07-02T09:24:33.358Z,100896.00
2018-07-02T09:25:33.422Z,100128.00
2018-07-02T09:26:33.363Z,99872.00
2018-07-02T09:27:33.334Z,100128.00
2018-07-02T09:28:33.325Z,100448.00
2018-07-02T09:29:33.318Z,100736.00
2018-07-02T09:30:33.311Z,101280.00
2018-07-02T09:31:33.308Z,100704.00
2018-07-02T09:32:33.295Z,102240.00
2018-07-02T09:33:33.283Z,102880.00
2018-07-02T09:34:33.278Z,104832.00
2018-07-02T09:35:33.283Z,105376.00
2018-07-02T09:36:33.273Z,103904.00
2018-07-02T09:37:33.244Z,104288.00
2018-07-02T09:38:33.242Z,105344.00
2018-07-02T09:39:33.231Z,105440.00
2018-07-02T09:40:33.225Z,106080.00
2018-07-02T09:41:33.214Z,105568.00
2018-07-02T09:42:33.225Z,103424.00
2018-07-02T09:43:33.195Z,106208.00
2018-07-02T09:44:33.186Z,106208.00
2018-07-02T09:45:33.189Z,105216.00
2018-07-02T09:46:33.168Z,106368.00
2018-07-02T09:47:33.163Z,107488.00
2018-07-02T09:48:33.341Z,106816.00
2018-07-02T09:49:33.167Z,107552.00
2018-07-02T09:50:33.140Z,108256.00
2018-07-02T09:51:33.134Z,106496.00
2018-07-02T09:52:33.121Z,106976.00
2018-07-02T09:53:33.129Z,106784.00
2018-07-02T09:54:33.106Z,14688.00
2018-07-02T09:55:33.093Z,14880.00
2018-07-02T09:56:33.084Z,14944.00
2018-07-02T09:57:33.076Z,15040.00
2018-07-02T09:58:33.068Z,15072.00
2018-07-02T09:59:33.070Z,15456.00
2018-07-02T10:00:33.101Z,15360.00
2018-07-02T10:01:33.042Z,15488.00
2018-07-02T10:02:33.033Z,15456.00
2018-07-02T10:03:33.020Z,15488.00
2018-07-02T10:04:33.027Z,114784.00
2018-07-02T10:05:33.005Z,38080.00
2018-07-02T10:06:33.040Z,36352.00
2018-07-02T10:07:32.984Z,34112.00
2018-07-02T10:08:32.975Z,120064.00
2018-07-02T10:09:32.968Z,104672.00
2018-07-02T10:10:32.969Z,87680.00
2018-07-02T10:11:32.958Z,72768.00
2018-07-02T10:12:32.961Z,62336.00
2018-07-02T10:13:32.939Z,62048.00
2018-07-02T10:14:32.931Z,69376.00
2018-07-02T10:15:32.940Z,60064.00
2018-07-02T10:16:32.915Z,31872.00
2018-07-02T10:17:32.906Z,25440.00
2018-07-02T10:18:32.906Z,24704.00
2018-07-02T10:19:32.895Z,24800.00
2018-07-02T10:20:32.888Z,25568.00
2018-07-02T10:21:32.889Z,25280.00
2018-07-02T10:22:32.870Z,25280.00
2018-07-02T10:23:37.333Z,25184.00
2018-07-02T10:24:32.862Z,25184.00
2018-07-02T10:25:32.853Z,25408.00
2018-07-02T10:26:32.898Z,25504.00
2018-07-02T10:27:32.837Z,25536.00
2018-07-02T10:28:32.829Z,25568.00
2018-07-02T10:29:32.823Z,25568.00
2018-07-02T10:30:32.815Z,25344.00
2018-07-02T10:31:32.814Z,25184.00
2018-07-02T10:32:32.815Z,9944.00
2018-07-02T10:33:32.797Z,9712.00
2018-07-02T10:34:32.789Z,9776.00
2018-07-02T10:35:32.778Z,9744.00
2018-07-02T10:36:32.769Z,9072.00
2018-07-02T10:37:32.780Z,9016.00
2018-07-02T10:38:32.755Z,8980.00
2018-07-02T10:39:32.746Z,8996.00
2018-07-02T10:40:32.733Z,9004.00
2018-07-02T10:41:32.725Z,9008.00
2018-07-02T10:42:32.716Z,9012.00
2018-07-02T10:43:32.719Z,9056.00
2018-07-02T10:44:32.701Z,9080.00
2018-07-02T10:45:32.692Z,9080.00
2018-07-02T10:46:32.682Z,9088.00
2018-07-02T10:47:32.668Z,9180.00
2018-07-02T10:48:32.679Z,9196.00
2018-07-02T10:49:32.650Z,9200.00
2018-07-02T10:50:32.641Z,9000.00
2018-07-02T10:51:32.635Z,9436.00
2018-07-02T10:52:32.627Z,9240.00
2018-07-02T10:53:32.614Z,9224.00
2018-07-02T10:54:32.613Z,9184.00
2018-07-02T10:55:32.613Z,9248.00
2018-07-02T10:56:32.590Z,9240.00
2018-07-02T10:57:32.581Z,9236.00
2018-07-02T10:58:32.573Z,9204.00
2018-07-02T10:59:32.576Z,9224.00
2018-07-02T11:00:32.548Z,9200.00
2018-07-02T11:01:32.542Z,9208.00
2018-07-02T11:02:32.532Z,9236.00
2018-07-02T11:03:32.524Z,9232.00
2018-07-02T11:04:32.514Z,9096.00
2018-07-02T11:05:32.516Z,9084.00
2018-07-02T11:06:32.496Z,9020.00
2018-07-02T11:07:32.483Z,9028.00
2018-07-02T11:08:32.477Z,8932.00
2018-07-02T11:09:32.468Z,8972.00
2018-07-02T11:10:32.469Z,8908.00
2018-07-02T11:11:32.446Z,8956.00
2018-07-02T11:12:32.436Z,8884.00
2018-07-02T11:13:32.426Z,8892.00
2018-07-02T11:14:32.419Z,8844.00
2018-07-02T11:15:32.421Z,8912.00
2018-07-02T11:16:32.402Z,8904.00
2018-07-02T11:17:32.392Z,8844.00
2018-07-02T11:18:32.387Z,8888.00
2018-07-02T11:19:32.373Z,8724.00
2018-07-02T11:20:32.379Z,126624.00
2018-07-02T11:21:32.352Z,123616.00
2018-07-02T11:22:32.343Z,123008.00
2018-07-02T11:23:32.376Z,125856.00
2018-07-02T11:24:32.331Z,126048.00
2018-07-02T11:25:32.319Z,124608.00
2018-07-02T11:26:32.327Z,120800.00
2018-07-02T11:27:32.312Z,119840.00
2018-07-02T11:28:32.299Z,121824.00
2018-07-02T11:29:32.291Z,124000.00
2018-07-02T11:30:32.285Z,122656.00
2018-07-02T11:31:32.280Z,121056.00
2018-07-02T11:32:32.281Z,118400.00
2018-07-02T11:33:32.258Z,116512.00
2018-07-02T11:34:32.251Z,114752.00
2018-07-02T11:35:32.246Z,113376.00
2018-07-02T11:36:32.240Z,114624.00
2018-07-02T11:37:32.281Z,117312.00
2018-07-02T11:38:32.236Z,118112.00
2018-07-02T11:39:32.215Z,116000.00
2018-07-02T11:40:32.208Z,118720.00
2018-07-02T11:41:32.204Z,120960.00
2018-07-02T11:42:32.273Z,122528.00
2018-07-02T11:43:32.203Z,121696.00
2018-07-02T11:44:32.182Z,121280.00
2018-07-02T11:45:32.194Z,123456.00
2018-07-02T11:46:32.165Z,121472.00
2018-07-02T11:47:33.023Z,119264.00
2018-07-02T11:48:32.159Z,121152.00
2018-07-02T11:49:32.176Z,122432.00
2018-07-02T11:51:40.897Z,115936.00
2018-07-02T11:52:40.891Z,117568.00
2018-07-02T11:53:40.884Z,114752.00
2018-07-02T11:54:40.889Z,112096.00
2018-07-02T11:55:40.873Z,113056.00
2018-07-02T11:56:40.867Z,117248.00
2018-07-02T11:57:40.860Z,113280.00
2018-07-02T11:58:40.854Z,112128.00
2018-07-02T11:59:40.865Z,114976.00
2018-07-02T12:00:40.838Z,114496.00
2018-07-02T12:01:40.831Z,114272.00
2018-07-02T12:02:40.825Z,116704.00
2018-07-02T12:03:40.828Z,113696.00
2018-07-02T12:04:40.815Z,113120.00
2018-07-02T12:05:40.821Z,116256.00
2018-07-02T12:06:40.801Z,115360.00
2018-07-02T12:07:40.796Z,114528.00
2018-07-02T12:08:40.792Z,121312.00
2018-07-02T12:09:40.784Z,119936.00
2018-07-02T12:10:40.796Z,114912.00
2018-07-02T12:11:40.769Z,120384.00
2018-07-02T12:12:40.766Z,119296.00